Time;durP1;ratioP1;P1;durP2;ratioP2;P2;SDS_P1;SDS_P2;PMS_P1;PMS_P2;Temp;Humidity;BMP_temperature;BMP_pressure;BME280_temperature;BME280_humidity;BME280_pressure;Samples;Min_cycle;Max_cycle;Signal;HPM_P1;HPM_P2
2021/05/06 00:33:51;;;;;;;32.95;17.02;;;9.60;82.70;;;;;;5037493;28;20022;-87
2021/05/06 00:36:17;;;;;;;23.45;14.82;;;9.60;82.50;;;;;;5047915;28;20083;-88
2021/05/06 00:38:50;;;;;;;25.38;16.65;;;9.60;81.40;;;;;;5037930;28;20021;-89
2021/05/06 01:05:46;;;;;;;17.05;11.00;;;9.90;76.90;;;;;;4956004;29;20043;-87
2021/05/06 01:08:21;;;;;;;16.02;10.68;;;10.00;75.60;;;;;;4959343;29;20200;-89
2021/05/06 01:11:01;;;;;;;19.60;12.18;;;10.10;75.10;;;;;;4941920;29;20031;-89
2021/05/06 01:13:29;;;;;;;20.88;11.57;;;10.10;74.80;;;;;;4946067;29;20047;-89
2021/05/06 01:15:56;;;;;;;14.80;10.45;;;10.20;74.10;;;;;;4954911;29;20027;-86
2021/05/06 01:18:22;;;;;;;21.38;11.23;;;10.20;73.30;;;;;;4958613;28;20664;-89
2021/05/06 01:20:53;;;;;;;15.73;11.15;;;10.30;72.60;;;;;;4955656;28;20027;-87
2021/05/06 01:23:19;;;;;;;19.35;11.38;;;10.40;72.50;;;;;;4970890;28;20542;-88
2021/05/06 01:25:59;;;;;;;18.08;12.45;;;10.40;72.60;;;;;;4955521;29;20179;-87
2021/05/06 01:28:28;;;;;;;18.50;12.32;;;10.40;73.00;;;;;;4960550;29;20058;-86
2021/05/06 01:31:03;;;;;;;17.45;12.40;;;10.30;73.60;;;;;;5008940;28;20044;-86
2021/05/06 01:36:30;;;;;;;19.75;11.75;;;10.20;72.80;;;;;;5057615;28;20048;-86
2021/05/06 02:00:30;;;;;;;17.98;12.02;;;10.20;73.90;;;;;;5057567;28;20017;-86
2021/05/06 02:02:57;;;;;;;17.40;11.30;;;10.20;73.30;;;;;;5060828;28;20021;-85
2021/05/06 02:05:23;;;;;;;15.77;10.43;;;10.30;72.90;;;;;;5057392;28;20032;-87
2021/05/06 02:07:51;;;;;;;16.95;10.35;;;10.30;72.20;;;;;;5057010;28;20040;-86
2021/05/06 02:10:21;;;;;;;15.55;9.45;;;10.30;71.80;;;;;;5066838;28;20073;-84
2021/05/06 02:12:46;;;;;;;11.27;8.82;;;10.40;71.30;;;;;;5068745;28;20025;-86
2021/05/06 02:15:17;;;;;;;21.95;10.18;;;10.50;70.70;;;;;;5069599;28;20076;-86
2021/05/06 02:17:45;;;;;;;18.58;10.15;;;10.60;70.40;;;;;;5047176;28;20492;-88
2021/05/06 02:20:12;;;;;;;14.95;9.43;;;10.60;71.00;;;;;;5059402;28;20115;-89
2021/05/06 02:22:38;;;;;;;21.23;11.10;;;10.70;70.70;;;;;;5055467;28;20155;-89
2021/05/06 02:25:05;;;;;;;13.85;10.90;;;10.70;70.80;;;;;;5039601;28;20045;-88
2021/05/06 02:27:31;;;;;;;14.05;8.88;;;10.80;70.70;;;;;;5058121;28;20065;-90
2021/05/06 02:29:58;;;;;;;11.50;8.90;;;10.80;70.40;;;;;;5058227;28;20118;-88
2021/05/06 02:32:24;;;;;;;14.63;9.38;;;10.80;69.60;;;;;;5066435;28;20021;-90
2021/05/06 02:34:50;;;;;;;14.35;9.38;;;10.80;69.60;;;;;;5076252;28;20009;-88
2021/05/06 02:37:16;;;;;;;10.88;8.05;;;10.90;69.50;;;;;;5061088;28;20032;-88
2021/05/06 02:39:45;;;;;;;12.15;8.93;;;10.90;68.90;;;;;;5056874;28;20021;-89
2021/05/06 02:42:11;;;;;;;13.80;8.77;;;11.10;68.60;;;;;;5058053;28;20021;-88
2021/05/06 02:44:37;;;;;;;16.83;8.88;;;11.20;68.10;;;;;;5057203;28;20063;-87
2021/05/06 02:47:04;;;;;;;12.20;8.00;;;11.30;67.70;;;;;;5066894;28;20017;-89
2021/05/06 02:49:31;;;;;;;17.13;7.90;;;11.40;67.20;;;;;;5061630;28;20501;-90
2021/05/06 02:52:07;;;;;;;11.32;8.07;;;11.50;66.90;;;;;;5056051;28;20100;-85
2021/05/06 02:54:40;;;;;;;10.90;7.93;;;11.50;66.80;;;;;;5054547;28;20100;-85
2021/05/06 03:05:09;;;;;;;10.30;8.18;;;11.90;65.80;;;;;;5055208;28;20036;-88
2021/05/06 03:07:37;;;;;;;13.40;7.20;;;12.00;65.60;;;;;;5053405;28;20477;-88
2021/05/06 03:10:17;;;;;;;11.57;6.55;;;12.10;65.60;;;;;;5055333;28;20061;-87
2021/05/06 03:23:23;;;;;;;10.52;6.38;;;12.50;64.30;;;;;;5054469;28;20029;-88
2021/05/06 03:25:49;;;;;;;7.85;6.45;;;12.60;64.30;;;;;;5057023;28;20029;-86
2021/05/06 03:28:23;;;;;;;8.60;6.10;;;12.60;64.20;;;;;;5055939;28;20029;-86
2021/05/06 03:44:22;;;;;;;10.43;5.40;;;13.00;64.00;;;;;;5054991;28;20024;-87
2021/05/06 04:12:17;;;;;;;7.47;4.22;;;13.60;63.10;;;;;;5056082;28;20147;-90
2021/05/06 04:28:00;;;;;;;6.32;4.28;;;14.60;60.90;;;;;;4978673;28;20063;-89
2021/05/06 04:35:48;;;;;;;6.75;4.13;;;14.90;59.90;;;;;;5058950;28;20036;-84
2021/05/06 04:38:16;;;;;;;7.95;4.43;;;15.00;59.60;;;;;;5053447;28;20067;-89
2021/05/06 04:44:15;;;;;;;9.23;4.05;;;15.30;59.60;;;;;;5054024;28;20028;-89
2021/05/06 04:57:26;;;;;;;8.32;4.85;;;15.60;58.10;;;;;;5060293;28;20104;-86
2021/05/06 05:05:20;;;;;;;5.13;4.10;;;15.90;58.10;;;;;;5055050;28;20083;-87
2021/05/06 05:07:49;;;;;;;7.03;4.35;;;16.10;57.40;;;;;;5031402;28;20466;-87
2021/05/06 05:20:51;;;;;;;6.00;4.28;;;16.00;57.20;;;;;;5057660;28;20094;-88
2021/05/06 05:25:49;;;;;;;6.40;4.20;;;16.70;55.20;;;;;;5058726;28;20078;-88
2021/05/06 05:28:15;;;;;;;8.95;4.15;;;16.60;55.50;;;;;;5057862;28;20052;-87
2021/05/06 05:30:41;;;;;;;5.75;3.70;;;16.60;55.60;;;;;;5057333;28;20098;-88
2021/05/06 05:33:13;;;;;;;6.90;4.00;;;16.80;54.90;;;;;;5053766;28;20021;-88
2021/05/06 05:35:42;;;;;;;8.00;4.10;;;17.00;54.80;;;;;;5057058;28;20070;-88
2021/05/06 05:38:18;;;;;;;6.40;4.65;;;17.20;54.60;;;;;;5058296;28;20087;-89
2021/05/06 05:56:52;;;;;;;11.60;5.30;;;16.30;56.20;;;;;;5061851;28;20127;-87
2021/05/06 05:59:19;;;;;;;10.90;4.40;;;16.40;56.10;;;;;;5058447;28;20031;-87
2021/05/06 06:01:50;;;;;;;11.10;4.90;;;16.50;55.70;;;;;;5056729;28;20477;-86
2021/05/06 06:04:16;;;;;;;5.65;4.78;;;16.60;55.90;;;;;;5056310;28;20025;-90
2021/05/06 06:06:45;;;;;;;12.52;5.25;;;16.60;55.70;;;;;;5034976;28;20505;-88
2021/05/06 06:09:11;;;;;;;7.85;4.78;;;16.60;56.00;;;;;;5046290;28;20406;-90
2021/05/06 06:11:37;;;;;;;10.63;6.07;;;16.70;55.90;;;;;;5036671;28;20112;-90
2021/05/06 06:14:08;;;;;;;12.30;5.32;;;17.30;55.80;;;;;;5042277;28;20025;-89
2021/05/06 06:16:36;;;;;;;9.93;4.28;;;18.00;53.70;;;;;;5051745;28;20013;-86
2021/05/06 06:19:02;;;;;;;8.85;5.18;;;18.40;52.20;;;;;;5064507;28;20100;-86
2021/05/06 06:24:05;;;;;;;7.68;4.03;;;18.80;51.10;;;;;;5060083;28;20017;-87
2021/05/06 06:26:31;;;;;;;11.90;4.65;;;19.00;49.80;;;;;;5046096;28;20024;-88
2021/05/06 06:29:05;;;;;;;6.43;4.30;;;18.80;49.90;;;;;;5037974;28;20056;-86
2021/05/06 06:31:46;;;;;;;13.32;4.72;;;18.70;50.30;;;;;;5038143;28;20544;-86
2021/05/06 06:34:12;;;;;;;9.05;4.50;;;18.80;49.90;;;;;;5044837;28;20021;-86
2021/05/06 06:36:44;;;;;;;7.88;4.57;;;18.50;50.20;;;;;;5058574;28;20056;-83
2021/05/06 06:39:12;;;;;;;17.95;5.15;;;18.50;50.50;;;;;;5040135;28;20518;-86
2021/05/06 06:41:38;;;;;;;8.20;5.20;;;18.80;50.50;;;;;;5055079;28;20025;-87
2021/05/06 06:44:04;;;;;;;10.27;5.22;;;19.20;49.30;;;;;;5055486;28;20096;-86
2021/05/06 06:46:30;;;;;;;10.32;4.55;;;19.90;48.30;;;;;;5055472;28;20049;-86
2021/05/06 06:48:58;;;;;;;11.45;4.45;;;20.80;46.20;;;;;;5039569;28;20048;-87
2021/05/06 06:51:24;;;;;;;8.35;4.28;;;21.50;44.60;;;;;;5057032;28;20024;-87
2021/05/06 06:53:50;;;;;;;9.35;4.78;;;22.20;43.10;;;;;;5055053;28;20017;-85
2021/05/06 06:56:17;;;;;;;6.53;5.05;;;21.60;42.90;;;;;;5055722;28;20017;-85
2021/05/06 06:58:45;;;;;;;8.07;4.05;;;21.50;43.20;;;;;;5054319;28;20028;-87
2021/05/06 07:01:11;;;;;;;6.40;3.88;;;20.90;43.30;;;;;;5055035;28;20053;-86
2021/05/06 07:03:37;;;;;;;5.32;3.45;;;20.50;44.40;;;;;;5055492;28;20021;-87
2021/05/06 07:06:03;;;;;;;8.00;3.75;;;20.40;44.50;;;;;;5054640;28;20035;-86
2021/05/06 07:08:34;;;;;;;7.93;3.80;;;20.40;44.90;;;;;;5056972;28;20450;-88
2021/05/06 07:11:08;;;;;;;10.55;3.85;;;20.00;45.10;;;;;;5054716;28;20036;-88
2021/05/06 07:13:34;;;;;;;17.00;4.30;;;19.90;46.10;;;;;;5037672;28;20110;-89
2021/05/06 07:16:03;;;;;;;9.75;4.90;;;20.60;45.70;;;;;;5038893;28;20051;-87
2021/05/06 07:18:36;;;;;;;5.78;3.70;;;21.10;43.90;;;;;;5039063;28;20025;-89
2021/05/06 07:21:04;;;;;;;11.02;3.72;;;21.10;43.30;;;;;;5038246;28;20053;-85
2021/05/06 07:23:31;;;;;;;5.45;4.38;;;20.50;44.20;;;;;;5042756;28;20027;-86
2021/05/06 07:25:58;;;;;;;8.15;3.42;;;20.40;44.30;;;;;;5036751;28;20504;-86
2021/05/06 07:28:34;;;;;;;10.77;3.53;;;20.40;44.20;;;;;;5054570;28;20056;-88
2021/05/06 07:31:02;;;;;;;5.18;3.00;;;21.20;43.60;;;;;;5054661;28;20060;-86
2021/05/06 07:33:29;;;;;;;2.67;2.40;;;21.70;41.00;;;;;;5055389;28;20031;-89
2021/05/06 07:35:55;;;;;;;5.68;2.30;;;21.70;41.20;;;;;;5056257;28;20108;-88
2021/05/06 07:38:21;;;;;;;3.03;2.63;;;22.00;40.20;;;;;;5059780;28;20371;-85
2021/05/06 07:40:47;;;;;;;9.57;3.47;;;22.80;39.10;;;;;;5049137;28;20483;-87
2021/05/06 07:43:13;;;;;;;9.63;3.13;;;23.20;38.70;;;;;;5052993;28;20135;-86
2021/05/06 07:45:39;;;;;;;6.93;3.10;;;24.20;37.40;;;;;;5061541;28;20025;-86
2021/05/06 07:48:06;;;;;;;7.30;3.08;;;23.80;37.10;;;;;;5055924;28;20049;-87
2021/05/06 07:50:32;;;;;;;5.60;3.53;;;24.40;36.90;;;;;;5055473;28;20021;-90
2021/05/06 07:53:07;;;;;;;6.15;3.13;;;25.30;35.00;;;;;;5055090;28;20071;-87
2021/05/06 07:55:36;;;;;;;6.03;3.20;;;25.00;35.00;;;;;;5054878;28;20013;-88
2021/05/06 07:58:07;;;;;;;7.15;2.50;;;25.50;34.60;;;;;;5054912;28;20025;-87
2021/05/06 08:00:35;;;;;;;5.50;2.40;;;25.70;34.00;;;;;;5055238;28;20359;-88
2021/05/06 08:03:06;;;;;;;8.05;3.10;;;26.10;33.60;;;;;;5057689;28;20009;-91
2021/05/06 08:06:00;;;;;;;3.13;2.40;;;26.20;34.20;;;;;;5020718;28;20047;-86
2021/05/06 08:08:29;;;;;;;3.95;2.95;;;26.30;33.10;;;;;;5045013;28;20516;-86
2021/05/06 08:10:59;;;;;;;5.40;3.67;;;26.20;34.00;;;;;;5055420;28;20049;-86
2021/05/06 08:13:28;;;;;;;11.00;3.20;;;26.90;33.40;;;;;;5052753;28;20033;-88
2021/05/06 08:15:55;;;;;;;10.48;3.45;;;27.50;32.70;;;;;;5062237;28;20110;-86
2021/05/06 08:18:21;;;;;;;;;;;26.40;32.80;;;;;;5047382;28;20381;-87
2021/05/06 08:20:47;;;;;;;4.53;2.80;;;26.10;33.70;;;;;;5055220;28;19995;-86
2021/05/06 08:23:13;;;;;;;4.13;2.33;;;25.80;33.90;;;;;;5056292;28;20022;-86
2021/05/06 08:25:42;;;;;;;10.23;2.83;;;25.90;33.70;;;;;;5054325;28;20504;-87
2021/05/06 08:28:08;;;;;;;5.43;3.40;;;25.20;34.20;;;;;;5056560;28;20539;-85
2021/05/06 08:30:34;;;;;;;5.78;3.13;;;24.30;35.50;;;;;;5059492;28;20053;-85
2021/05/06 08:33:03;;;;;;;6.32;3.13;;;23.00;37.70;;;;;;5054521;28;20021;-86
2021/05/06 08:35:29;;;;;;;7.72;3.75;;;22.50;39.40;;;;;;5055771;28;20025;-87
2021/05/06 08:37:55;;;;;;;7.25;3.90;;;22.10;39.80;;;;;;5063334;28;20087;-86
2021/05/06 08:40:21;;;;;;;8.35;2.97;;;21.40;41.10;;;;;;5051571;28;20021;-83
2021/05/06 08:42:54;;;;;;;6.90;3.30;;;20.90;42.20;;;;;;5050918;28;20021;-87
2021/05/06 08:45:23;;;;;;;3.80;3.25;;;20.90;42.80;;;;;;5035581;28;20372;-88
2021/05/06 08:47:53;;;;;;;9.77;4.32;;;21.20;42.10;;;;;;5046893;28;20017;-89
2021/05/06 08:50:22;;;;;;;7.47;2.53;;;21.40;42.40;;;;;;5056742;28;20021;-89
2021/05/06 08:52:49;;;;;;;9.80;3.28;;;21.80;40.80;;;;;;5026684;28;20040;-88
2021/05/06 08:55:16;;;;;;;5.55;3.28;;;21.30;41.40;;;;;;5030935;28;20036;-89
2021/05/06 08:57:42;;;;;;;7.13;3.67;;;20.70;42.40;;;;;;5048681;28;20025;-88
2021/05/06 09:00:09;;;;;;;9.60;4.20;;;20.20;44.00;;;;;;5044690;28;20050;-86
2021/05/06 09:02:47;;;;;;;6.18;3.28;;;19.90;44.70;;;;;;5040528;28;20485;-86
2021/05/06 09:05:14;;;;;;;3.95;2.90;;;19.80;45.30;;;;;;5036075;28;20421;-83
2021/05/06 09:07:46;;;;;;;8.20;3.55;;;19.80;45.50;;;;;;5022302;28;20390;-85
2021/05/06 09:10:35;;;;;;;6.13;2.45;;;19.50;47.10;;;;;;5041801;28;20029;-82
2021/05/06 09:13:24;;;;;;;14.15;3.63;;;18.70;49.80;;;;;;5062460;28;20134;-85
2021/05/06 09:15:53;;;;;;;8.48;4.30;;;18.20;52.00;;;;;;5047540;28;20347;-90
2021/05/06 09:18:40;;;;;;;8.98;5.55;;;17.80;53.70;;;;;;5068081;28;20025;-88
2021/05/06 09:21:09;;;;;;;5.47;3.30;;;17.60;54.40;;;;;;5049701;28;20163;-85
2021/05/06 09:23:35;;;;;;;4.80;2.55;;;17.40;55.40;;;;;;5060731;28;20061;-85
2021/05/06 09:26:09;;;;;;;5.45;3.22;;;17.30;55.70;;;;;;5058305;28;20028;-83
2021/05/06 09:28:35;;;;;;;5.40;2.97;;;17.20;55.90;;;;;;5039183;28;20029;-84
2021/05/06 09:31:07;;;;;;;10.73;3.65;;;17.30;56.60;;;;;;5056415;28;20112;-83
2021/05/06 09:33:38;;;;;;;6.45;3.88;;;17.30;58.50;;;;;;5028410;28;20025;-85
2021/05/06 09:36:35;;;;;;;5.57;3.50;;;16.80;62.90;;;;;;5061157;28;20021;-85
2021/05/06 09:39:09;;;;;;;4.60;3.97;;;16.00;65.40;;;;;;5040033;28;20033;-85
2021/05/06 09:41:39;;;;;;;4.20;2.95;;;15.60;67.20;;;;;;5057231;28;20017;-84
2021/05/06 09:44:17;;;;;;;4.10;3.67;;;15.70;67.50;;;;;;5043612;28;20029;-85
2021/05/06 09:46:56;;;;;;;4.38;3.40;;;15.80;67.80;;;;;;5050993;28;20025;-89
2021/05/06 09:49:22;;;;;;;6.43;3.92;;;15.60;70.00;;;;;;5061959;28;20021;-91
2021/05/06 09:51:57;;;;;;;4.63;3.60;;;15.50;69.50;;;;;;5054524;28;20055;-87
2021/05/06 09:54:31;;;;;;;14.93;4.82;;;15.70;69.10;;;;;;5051883;28;20029;-85
2021/05/06 09:57:05;;;;;;;4.70;4.20;;;16.10;68.30;;;;;;5049137;28;20029;-84
2021/05/06 09:59:34;;;;;;;6.82;5.22;;;16.70;66.60;;;;;;5056729;28;20029;-85
2021/05/06 10:02:33;;;;;;;6.82;3.95;;;17.40;64.10;;;;;;5055915;28;20387;-87
2021/05/06 10:05:09;;;;;;;9.80;3.75;;;18.10;61.10;;;;;;5036111;28;20037;-87
2021/05/06 10:07:48;;;;;;;5.82;4.60;;;18.70;59.30;;;;;;5029372;28;20482;-91
2021/05/06 10:10:17;;;;;;;6.25;4.55;;;19.10;57.60;;;;;;5062588;28;20041;-91
2021/05/06 10:12:43;;;;;;;6.15;4.22;;;19.10;55.90;;;;;;5071239;28;20072;-89
2021/05/06 10:15:13;;;;;;;5.63;3.45;;;18.80;56.00;;;;;;5035842;28;20041;-90
2021/05/06 10:17:43;;;;;;;6.32;4.70;;;18.50;55.70;;;;;;5055824;28;20459;-90
2021/05/06 10:20:11;;;;;;;7.95;4.43;;;18.10;56.50;;;;;;5056354;28;20092;-91
2021/05/06 10:22:39;;;;;;;7.15;3.80;;;17.90;57.20;;;;;;5058536;28;20013;-91
2021/05/06 10:25:07;;;;;;;5.88;4.22;;;18.00;57.40;;;;;;5051756;28;20045;-86
2021/05/06 10:27:33;;;;;;;5.35;3.38;;;18.10;56.40;;;;;;5059599;28;20086;-90
2021/05/06 10:30:02;;;;;;;4.25;3.10;;;18.30;56.60;;;;;;5065716;28;20067;-92
2021/05/06 10:32:30;;;;;;;5.18;3.05;;;17.70;57.30;;;;;;5072787;28;20024;-88
2021/05/06 10:34:59;;;;;;;7.13;4.15;;;17.20;59.40;;;;;;5058746;28;20025;-91
2021/05/06 10:37:26;;;;;;;5.30;3.47;;;16.80;61.10;;;;;;5050901;28;20029;-88
2021/05/06 10:39:52;;;;;;;6.40;3.80;;;16.50;62.60;;;;;;5050302;28;20021;-90
2021/05/06 10:42:48;;;;;;;5.13;3.42;;;16.00;65.60;;;;;;5060265;28;20029;-88
2021/05/06 10:45:21;;;;;;;5.00;3.20;;;15.20;69.00;;;;;;4991516;28;20055;-93
2021/05/06 10:47:50;;;;;;;3.53;3.15;;;14.60;71.30;;;;;;4983450;28;20032;-90
2021/05/06 10:50:19;;;;;;;6.43;3.45;;;13.90;76.70;;;;;;4982720;28;20590;-89
2021/05/06 10:52:49;;;;;;;3.90;2.97;;;13.30;78.40;;;;;;4963937;28;20491;-91
2021/05/06 10:55:35;;;;;;;4.43;3.33;;;13.00;79.10;;;;;;4985358;28;20039;-94
2021/05/06 10:58:27;;;;;;;3.73;2.97;;;13.10;78.60;;;;;;4984535;28;20023;-91
2021/05/06 11:01:29;;;;;;;5.75;3.47;;;13.00;80.00;;;;;;4989686;28;20053;-93
2021/05/06 11:04:07;;;;;;;5.78;3.08;;;12.40;82.40;;;;;;4982306;28;20074;-92
2021/05/06 11:06:43;;;;;;;5.45;3.63;;;12.00;85.90;;;;;;4986536;28;20093;-96
2021/05/06 11:09:36;;;;;;;5.68;4.10;;;11.70;87.50;;;;;;4979788;28;20082;-92
2021/05/06 11:12:26;;;;;;;5.05;4.50;;;11.50;87.10;;;;;;4965847;28;20030;-86
2021/05/06 11:15:05;;;;;;;4.80;4.22;;;11.50;87.90;;;;;;4978051;28;20053;-93
2021/05/06 11:17:40;;;;;;;6.43;4.20;;;11.60;87.40;;;;;;4969947;28;20026;-88
2021/05/06 11:20:12;;;;;;;4.75;4.00;;;11.80;86.90;;;;;;4983967;28;20019;-91
2021/05/06 11:22:48;;;;;;;6.72;4.90;;;12.20;86.00;;;;;;5035894;28;20033;-89
2021/05/06 11:28:25;;;;;;;5.97;4.40;;;12.60;83.00;;;;;;5058233;28;20033;-91
2021/05/06 11:30:52;;;;;;;4.50;3.90;;;12.70;82.10;;;;;;5049723;28;20386;-88
2021/05/06 11:33:22;;;;;;;6.22;4.18;;;12.90;81.20;;;;;;5043141;28;20025;-86
2021/05/06 11:36:07;;;;;;;6.32;4.70;;;13.10;80.00;;;;;;5046663;28;20383;-90
2021/05/06 11:38:39;;;;;;;6.55;4.65;;;13.40;79.30;;;;;;5034226;28;20510;-90
2021/05/06 11:41:29;;;;;;;6.70;3.55;;;13.50;77.40;;;;;;5024375;28;20068;-91
2021/05/06 11:44:01;;;;;;;12.43;3.55;;;13.70;75.90;;;;;;5024245;28;20479;-92
2021/05/06 11:46:28;;;;;;;8.75;3.97;;;13.70;74.40;;;;;;5037405;28;20041;-89
2021/05/06 11:48:58;;;;;;;;;;;13.70;73.80;;;;;;5024300;28;20033;-93
2021/05/06 11:51:30;;;;;;;7.57;5.30;;;13.80;74.40;;;;;;5035932;28;20061;-89
2021/05/06 11:54:16;;;;;;;6.60;4.72;;;14.10;74.10;;;;;;5034862;28;20439;-91
2021/05/06 11:56:55;;;;;;;5.50;3.83;;;14.40;72.90;;;;;;5049038;28;20104;-90
2021/05/06 11:59:25;;;;;;;5.10;4.07;;;14.40;71.80;;;;;;5031993;28;20103;-94
2021/05/06 12:01:57;;;;;;;6.43;4.78;;;14.60;71.50;;;;;;5006607;28;20041;-92
2021/05/06 12:04:26;;;;;;;5.90;4.55;;;14.70;71.60;;;;;;5018014;28;20056;-93
2021/05/06 12:06:53;;;;;;;4.75;4.13;;;14.90;70.60;;;;;;5043382;28;20391;-91
2021/05/06 12:09:30;;;;;;;7.37;4.13;;;14.80;69.90;;;;;;5053028;28;20048;-94
2021/05/06 12:12:00;;;;;;;8.90;4.40;;;14.70;70.20;;;;;;5049173;28;20028;-94
2021/05/06 12:15:19;;;;;;;8.05;4.75;;;14.60;70.60;;;;;;5043618;28;20045;-93
2021/05/06 12:17:45;;;;;;;7.65;3.97;;;14.50;70.60;;;;;;5059354;28;20060;-93
2021/05/06 12:20:11;;;;;;;4.85;3.72;;;14.50;70.40;;;;;;5053642;28;20025;-91
2021/05/06 12:22:40;;;;;;;6.95;4.22;;;14.50;70.50;;;;;;5077794;28;20021;-86
2021/05/06 12:25:07;;;;;;;4.57;4.03;;;14.60;70.80;;;;;;5081339;28;20028;-84
2021/05/06 12:27:36;;;;;;;6.32;4.97;;;14.10;74.60;;;;;;5078867;28;20104;-89
2021/05/06 12:30:02;;;;;;;6.22;4.40;;;13.60;77.50;;;;;;5054596;28;20045;-95
2021/05/06 12:32:43;;;;;;;6.13;4.57;;;13.00;78.00;;;;;;5063378;28;20104;-88
2021/05/06 12:35:11;;;;;;;7.07;4.85;;;12.80;80.30;;;;;;5079046;28;20079;-93
2021/05/06 12:37:38;;;;;;;;;;;12.40;84.00;;;;;;5063451;28;20076;-89
2021/05/06 12:40:10;;;;;;;5.77;4.60;;;12.00;86.10;;;;;;5055706;28;19912;-84
2021/05/06 12:42:37;;;;;;;7.05;5.30;;;11.90;85.20;;;;;;5073356;28;20756;-93
2021/05/06 12:45:26;;;;;;;5.95;4.90;;;12.10;84.60;;;;;;5076403;28;20040;-92
2021/05/06 12:47:54;;;;;;;5.82;5.00;;;12.40;82.00;;;;;;5038206;28;20062;-93
2021/05/06 12:50:28;;;;;;;7.20;5.97;;;12.80;81.50;;;;;;5039833;28;20029;-92
2021/05/06 12:52:56;;;;;;;8.05;5.10;;;13.10;80.60;;;;;;5044349;28;20033;-90
2021/05/06 12:56:16;;;;;;;10.25;5.40;;;13.40;78.30;;;;;;5063862;28;20017;-92
2021/05/06 12:58:43;;;;;;;5.53;4.38;;;13.80;76.90;;;;;;4968113;29;20099;-90
2021/05/06 13:01:15;;;;;;;9.00;5.50;;;14.20;73.80;;;;;;4942885;29;20122;-90
2021/05/06 13:03:43;;;;;;;5.72;5.22;;;14.60;73.10;;;;;;4968144;29;20059;-90
2021/05/06 13:06:10;;;;;;;6.78;4.65;;;14.70;72.00;;;;;;4946457;28;20039;-93
2021/05/06 13:08:40;;;;;;;;;;;14.80;71.40;;;;;;4945030;29;20024;-87
2021/05/06 13:11:09;;;;;;;9.20;4.93;;;14.90;70.50;;;;;;4950001;29;19921;-91
2021/05/06 13:14:04;;;;;;;10.65;5.78;;;14.90;70.60;;;;;;4954246;29;20043;-89
2021/05/06 13:16:59;;;;;;;7.43;4.25;;;15.00;71.10;;;;;;4959791;28;20023;-95
2021/05/06 13:19:57;;;;;;;6.00;5.13;;;15.10;70.20;;;;;;4963330;28;20027;-89
2021/05/06 13:22:27;;;;;;;9.93;5.93;;;15.20;70.70;;;;;;4973246;29;20115;-93
2021/05/06 13:24:56;;;;;;;7.60;5.35;;;15.40;70.10;;;;;;4963364;29;20035;-95
2021/05/06 13:27:26;;;;;;;6.82;4.85;;;15.60;69.20;;;;;;4952548;29;20031;-90
2021/05/06 13:30:04;;;;;;;6.93;4.50;;;15.70;68.40;;;;;;4965855;28;20563;-92
2021/05/06 13:32:35;;;;;;;6.47;5.38;;;15.70;68.40;;;;;;5016629;28;20037;-89
2021/05/06 13:35:02;;;;;;;8.60;6.30;;;15.70;68.50;;;;;;5058975;28;20021;-88
2021/05/06 13:37:38;;;;;;;7.38;4.68;;;15.80;68.60;;;;;;5059593;28;20059;-89
2021/05/06 13:40:05;;;;;;;6.95;3.95;;;15.80;68.00;;;;;;5058434;28;20047;-85
2021/05/06 13:42:31;;;;;;;;;;;15.80;67.70;;;;;;5058933;28;20478;-90
2021/05/06 13:44:58;;;;;;;9.30;6.40;;;15.90;67.70;;;;;;5059126;28;19919;-89
2021/05/06 13:47:25;;;;;;;5.50;4.40;;;15.90;67.40;;;;;;5059342;28;20059;-92
2021/05/06 13:49:52;;;;;;;;;;;16.00;67.00;;;;;;5061750;28;20040;-89
2021/05/06 13:52:19;;;;;;;6.68;4.22;;;16.00;66.80;;;;;;5059174;28;19936;-88
2021/05/06 13:54:46;;;;;;;11.55;5.50;;;15.90;65.90;;;;;;5061317;28;20010;-90
2021/05/06 13:57:11;;;;;;;8.73;4.82;;;15.80;66.30;;;;;;5076069;28;20040;-90
2021/05/06 13:59:37;;;;;;;10.98;5.47;;;15.80;66.10;;;;;;5073414;28;20017;-91
2021/05/06 14:02:03;;;;;;;8.10;5.45;;;15.80;65.90;;;;;;5063207;28;20033;-90
2021/05/06 14:04:29;;;;;;;9.20;5.10;;;15.80;65.80;;;;;;5051726;28;20037;-88
2021/05/06 14:06:55;;;;;;;7.72;4.55;;;15.80;64.00;;;;;;5053536;28;20025;-88
2021/05/06 14:09:21;;;;;;;8.40;4.72;;;15.80;63.50;;;;;;5060002;28;20036;-90
2021/05/06 14:11:48;;;;;;;9.85;4.63;;;15.80;61.70;;;;;;5064898;28;20056;-89
2021/05/06 14:14:16;;;;;;;5.68;4.30;;;15.90;61.10;;;;;;5056588;28;20025;-88
2021/05/06 14:16:42;;;;;;;;;;;15.90;60.50;;;;;;5058281;28;20063;-87
2021/05/06 14:19:12;;;;;;;6.50;3.83;;;15.90;60.30;;;;;;5056712;28;19908;-89
2021/05/06 14:21:43;;;;;;;5.53;3.95;;;15.80;59.40;;;;;;5056764;28;20458;-88
2021/05/06 14:24:12;;;;;;;6.50;4.40;;;15.50;63.00;;;;;;5048020;28;20060;-93
2021/05/06 14:26:38;;;;;;;5.30;3.85;;;14.80;65.90;;;;;;5038689;28;20032;-89
2021/05/06 14:29:05;;;;;;;7.20;4.20;;;14.30;67.20;;;;;;5074201;28;20052;-88
2021/05/06 14:31:31;;;;;;;11.38;4.28;;;14.30;67.70;;;;;;5054655;28;20040;-83
2021/05/06 14:33:57;;;;;;;6.35;4.40;;;14.30;67.50;;;;;;5053642;28;20021;-93
2021/05/06 14:36:23;;;;;;;7.80;4.20;;;14.40;68.00;;;;;;5032550;28;20030;-93
2021/05/06 14:38:49;;;;;;;9.95;5.15;;;14.50;66.60;;;;;;5035710;28;20073;-90
2021/05/06 14:41:16;;;;;;;6.70;3.60;;;14.60;66.50;;;;;;5032983;28;20033;-84
2021/05/06 14:43:42;;;;;;;6.03;3.58;;;14.80;65.40;;;;;;5033093;28;20017;-89
2021/05/06 14:46:08;;;;;;;6.15;3.95;;;14.90;65.10;;;;;;5025265;28;20097;-88
2021/05/06 14:48:34;;;;;;;8.60;4.30;;;15.00;63.10;;;;;;5028899;28;20033;-85
2021/05/06 14:51:00;;;;;;;5.28;3.85;;;15.20;63.30;;;;;;5022329;28;20038;-91
2021/05/06 14:53:29;;;;;;;5.85;3.80;;;15.30;62.80;;;;;;4997587;28;20030;-86
2021/05/06 14:55:55;;;;;;;4.68;3.40;;;15.30;61.80;;;;;;5014118;28;20065;-88
2021/05/06 14:58:21;;;;;;;5.72;3.90;;;15.40;61.60;;;;;;5016911;28;20416;-87
2021/05/06 15:00:47;;;;;;;6.82;3.60;;;15.40;61.10;;;;;;5018891;28;20030;-91
2021/05/06 15:03:15;;;;;;;6.82;3.78;;;15.40;61.50;;;;;;5020210;28;20037;-93
2021/05/06 15:05:45;;;;;;;7.72;3.90;;;15.40;60.30;;;;;;5005708;28;20135;-93
2021/05/06 15:08:11;;;;;;;6.43;3.10;;;15.40;60.00;;;;;;5057706;28;20040;-89
2021/05/06 15:10:37;;;;;;;6.45;3.50;;;15.40;59.20;;;;;;5058056;28;20017;-93
2021/05/06 15:13:03;;;;;;;8.45;3.40;;;15.30;59.40;;;;;;5057293;28;20159;-87
2021/05/06 15:15:29;;;;;;;7.25;3.60;;;15.40;59.70;;;;;;5056036;28;20029;-90
2021/05/06 15:18:00;;;;;;;6.03;3.53;;;15.40;59.10;;;;;;5059086;28;20025;-93
2021/05/06 15:20:26;;;;;;;8.95;3.65;;;15.30;58.90;;;;;;5043530;28;20064;-90
2021/05/06 15:22:53;;;;;;;12.25;4.47;;;15.30;59.70;;;;;;5049660;28;20035;-89
2021/05/06 15:25:24;;;;;;;6.43;3.50;;;15.30;59.60;;;;;;5062412;28;20181;-90
2021/05/06 15:27:50;;;;;;;5.60;3.97;;;15.30;59.50;;;;;;5044222;28;20021;-88
2021/05/06 15:30:19;;;;;;;7.22;4.05;;;15.30;60.00;;;;;;5039210;28;20049;-87
2021/05/06 15:32:46;;;;;;;5.65;4.15;;;15.30;60.00;;;;;;5058600;28;20693;-88
2021/05/06 15:35:13;;;;;;;5.72;3.95;;;15.30;60.80;;;;;;5046989;28;20029;-90
2021/05/06 15:37:40;;;;;;;10.88;4.65;;;15.30;62.50;;;;;;5069965;28;20078;-92
2021/05/06 15:40:08;;;;;;;9.57;4.07;;;15.20;63.60;;;;;;5062344;28;20029;-90
2021/05/06 15:42:34;;;;;;;10.70;4.25;;;15.00;64.50;;;;;;5057111;28;20025;-90
2021/05/06 15:45:00;;;;;;;6.15;3.38;;;14.80;66.30;;;;;;5055634;28;20382;-91
2021/05/06 15:47:26;;;;;;;6.40;4.78;;;14.70;66.60;;;;;;5059626;28;20017;-93
2021/05/06 15:49:52;;;;;;;8.60;3.72;;;14.50;68.10;;;;;;5043169;28;20029;-91
2021/05/06 15:52:19;;;;;;;5.20;3.78;;;14.20;70.20;;;;;;5042010;28;20017;-90
2021/05/06 15:54:45;;;;;;;5.57;4.13;;;13.90;72.20;;;;;;5039402;28;20033;-91
2021/05/06 15:57:10;;;;;;;4.38;3.80;;;13.50;74.10;;;;;;5058886;28;20021;-88
2021/05/06 15:59:39;;;;;;;5.53;4.50;;;13.20;75.40;;;;;;5064606;28;20029;-95
2021/05/06 16:02:08;;;;;;;5.05;3.80;;;13.10;76.30;;;;;;5066191;28;20028;-95
2021/05/06 16:04:37;;;;;;;5.28;3.22;;;13.10;78.00;;;;;;5052783;28;20036;-94
2021/05/06 16:07:03;;;;;;;5.80;3.78;;;13.00;78.70;;;;;;5049429;28;20022;-90
2021/05/06 16:09:28;;;;;;;3.60;1.88;;;12.80;80.90;;;;;;5046242;28;20044;-88
2021/05/06 16:11:57;;;;;;;4.32;2.95;;;12.50;82.10;;;;;;5073816;28;20017;-93
2021/05/06 16:14:23;;;;;;;3.00;2.70;;;12.20;84.30;;;;;;5055238;28;20021;-90
2021/05/06 16:16:49;;;;;;;4.15;2.72;;;12.00;85.80;;;;;;5050792;28;20028;-89
2021/05/06 16:19:16;;;;;;;4.13;3.50;;;11.90;86.10;;;;;;5061481;28;20021;-95
2021/05/06 16:21:42;;;;;;;3.55;2.90;;;11.90;86.50;;;;;;5049594;28;20036;-93
2021/05/06 16:24:13;;;;;;;4.72;2.90;;;11.80;86.70;;;;;;5048396;28;20036;-94
2021/05/06 16:26:40;;;;;;;3.95;2.95;;;11.70;87.00;;;;;;5041974;28;20087;-93
2021/05/06 16:29:07;;;;;;;6.55;4.28;;;11.60;87.90;;;;;;5035476;28;20116;-91
2021/05/06 16:31:33;;;;;;;8.90;4.78;;;11.60;88.10;;;;;;5054979;28;20009;-86
2021/05/06 16:34:01;;;;;;;5.85;3.70;;;11.60;87.40;;;;;;5071212;28;20347;-91